Tiempo atmosférico en la estación meteorológica de Barcelona, Barcelona (25 m.)



Fecha
DESCASC
Temp. máxima en grados centígrados (hora)
DESCASC
Temp. mínima en grados centígrados (hora)
DESCASC
Temp. media en grados centígrados
DESCASC
Racha de viento máxima en m/sg (hora)
DESCASC
Velocidad máxima media en intervalos de 10 minutos(hora)
DESCASC
Precipitaciones diarias en mm
DESCASC
Precipitaciones de 00:00 a 06:00 en mm
DESCASC
Precipitaciones de 06:00 a 12:00 en mm
DESCASC
Precipitaciones de 12:00 a 18:00 en mm
DESCASC
Precipitaciones de 18:00 a 24:00 en mm
DESCASC
23-06-2019 26.4 (18:10) 19.4 (05:00) 22.9 10.28 (15:20) 8.06 (15:20) 0 0 0 0 0
22-06-2019 26.3 (16:00) 19.8 (03:40) 23 13.61 (18:40) 8.61 (17:20) 0 0 0 0 0
21-06-2019 26.6 (11:10) 19.1 (03:40) 22.9 6.39 (13:10) 4.72 (13:10) 0 0 0 0 0
20-06-2019 23.9 (15:10) 18.9 (00:00) 21.4 7.5 (10:30) 6.39 (10:30) 0 0 0 0 0
19-06-2019 22.4 (18:00) 18.2 (00:00) 20.3 8.61 (12:10) 6.94 (12:10) 0 0 0 0 0
18-06-2019 24.8 (19:00) 18.9 (00:00) 21.8 10 (13:00) 8.33 (12:50) 0 0 0 0 0
17-06-2019 24.5 (17:10) 17.6 (00:00) 21.1 10 (20:20) 7.5 (15:40) 0 0 0 0 0
16-06-2019 -- (--) -- (--) -- 10 (18:00) 7.5 (15:10) 0 0 0 0 0
15-06-2019 23.1 (11:00) 17.2 (00:00) 20.2 6.67 (16:10) 5.28 (17:20) 0 0 0 0 0
14-06-2019 24.6 (14:40) 18.3 (00:00) 21.4 15.28 (16:00) 10 (10:20) 0 0 0 0 0
13-06-2019 20.8 (13:40) 13.8 (00:00) 17.3 8.89 (21:30) 7.22 (21:30) 0 0 0 0 0
12-06-2019 18.4 (14:40) 12.6 (00:00) 15.5 9.17 (17:00) 6.94 (13:00) 0 0 0 0 0
11-06-2019 18.3 (00:10) 13.2 (00:00) 15.7 17.78 (02:40) 7.22 (02:40) 29.9 0.7 14.2 12 3
10-06-2019 26.5 (11:00) 17.2 (00:00) 21.9 10.28 (18:50) 7.5 (21:20) 0 0 0 0 0
09-06-2019 26.3 (12:50) 18.2 (00:00) 22.3 11.39 (09:40) 5.28 (22:20) 0 0 0 0 0
08-06-2019 21.8 (12:10) 16.2 (00:00) 19 7.5 (13:40) 6.11 (15:10) 0 0 0 0 0
07-06-2019 26.6 (20:20) 17.2 (00:00) 21.9 14.72 (21:10) 10 (21:40) 0 0 0 0 0
06-06-2019 20.3 (17:50) 16.2 (00:00) 18.3 7.78 (12:50) 5.83 (13:00) 0 0 0 0 0
05-06-2019 24.5 (16:10) 17 (00:00) 20.8 14.44 (16:40) 8.33 (21:40) 0 0 0 0 0
04-06-2019 21.5 (18:20) 17.8 (00:00) 19.6 8.61 (13:00) 6.39 (12:40) 0 0 0 0 0
03-06-2019 24.9 (16:50) 17.2 (00:00) 21.1 10.56 (16:20) 8.06 (14:00) 0 0 0 0 0
02-06-2019 23.9 (16:20) 16.1 (00:00) 20 11.94 (15:10) 8.33 (15:30) 0 0 0 0 0
01-06-2019 23.8 (15:30) 17.8 (00:00) 20.8 11.11 (17:20) 7.5 (15:40) 0 0 0 0 0
31-05-2019 22 (10:10) 15 (00:00) 18.5 9.44 (15:00) 7.5 (15:10) 0 0 0 0 0
30-05-2019 20.2 (13:10) 13.9 (00:00) 17.1 7.5 (18:40) 6.39 (18:50) 0 0 0 0 0
29-05-2019 19.9 (11:30) 14.3 (00:00) 17.1 10.56 (14:50) 8.33 (15:20) 0 0 0 0 0
28-05-2019 19.9 (09:40) 16.2 (00:00) 18.1 7.78 (11:20) 6.67 (11:20) 0 0 0 0 0
27-05-2019 -- (--) -- (--) -- 10 (14:00) 8.33 (14:00) 0 0 0 0 0
26-05-2019 23.6 (12:00) 15.3 (00:00) 19.5 8.06 (14:50) 6.39 (14:40) 0 0 0 0 0

Gráficas

Temp. máximas Temp. mínimas Temp. medias Precipitaciones Rachas de viento máximas Velocidades máximas media en intervalos de 10 minutos

Datos horarios

Fecha y hora oficial Temperatura (ºC) Velocidad del viento (km/h) Dirección del viento Racha (km/h) Dirección de racha Precipitación (mm) Presión (hPa) Tendencia (hPa) Humedad (%)
2019-06-24 23:00:00 20.7 16 Nordeste 27 Nordeste 0 -- -- 93
2019-06-24 22:00:00 20.7 18 Este 32 Este 0 -- -- 93
2019-06-24 21:00:00 21 24 Este 31 Este 0 -- -- 92
2019-06-24 20:00:00 21.6 23 Este 35 Este 0 -- -- 90
2019-06-24 19:00:00 22.5 25 Este 34 Este 0 -- -- 84
2019-06-24 18:00:00 22.8 22 Este 30 Este 0 -- -- 79
2019-06-24 17:00:00 23.5 21 Este 27 Este 0 -- -- 66
2019-06-24 16:00:00 23.9 18 Este 35 Este 0 -- -- 70
2019-06-24 15:00:00 23.5 22 Este 32 Este 0 -- -- 71
2019-06-24 14:00:00 23.6 21 Este 32 Nordeste 0 -- -- 66
2019-06-24 13:00:00 22.8 22 Este 31 Este 0 -- -- 82
2019-06-24 12:00:00 22.5 17 Este 24 Este 0 -- -- 85
2019-06-24 11:00:00 22 18 Este 24 Este 0 -- -- 86
2019-06-24 10:00:00 22 16 Este 23 Este 0 -- -- 81
2019-06-24 09:00:00 22.1 13 Este 16 Nordeste 0 -- -- 69
2019-06-24 08:00:00 21.1 8 Nordeste 19 Norte 0 -- -- 65
2019-06-24 07:00:00 21.5 11 Norte 21 Norte 0 -- -- 61
2019-06-24 06:00:00 21.7 9 Norte 18 Norte 0 -- -- 62
2019-06-24 05:00:00 21.4 11 Norte 23 Norte 0 -- -- 70
2019-06-24 04:00:00 21.1 10 Norte 18 Norte 0 -- -- 74
2019-06-24 03:00:00 19.8 8 Norte 12 Norte 0 -- -- 86
2019-06-24 02:00:00 20.2 5 Este 6 Este 0 -- -- 93
2019-06-24 01:00:00 20.3 4 Este 10 Este 0 -- -- 93
2019-06-24 00:00:00 20.2 9 Este 16 Este 0 -- -- 93
2019-06-23 23:00:00 20.5 6 Este 10 Este 0 -- -- 93
2019-06-23 22:00:00 20.9 5 Sur 15 Sudoeste 0 -- -- 93
2019-06-23 21:00:00 23.5 5 Sudoeste 26 Sudoeste 0 -- -- 68
2019-06-23 20:00:00 22.9 20 Sudoeste 30 Sudoeste 0 -- -- 75
2019-06-23 19:00:00 24.2 22 Sudoeste 31 Sudoeste 0 -- -- 70
2019-06-23 18:00:00 25.8 19 Sudoeste 33 Sudoeste 0 -- -- 58
2019-06-23 17:00:00 23.7 24 Sudoeste 35 Sudoeste 0 -- -- 74
2019-06-23 16:00:00 22.9 26 Sudoeste 37 Sudoeste 0 -- -- 80
2019-06-23 15:00:00 22.2 25 Sudoeste 36 Sudoeste 0 -- -- 83
2019-06-23 14:00:00 21.6 25 Sudoeste 33 Sudoeste 0 -- -- 90
2019-06-23 13:00:00 21.8 19 Sudoeste 28 Sudoeste 0 -- -- 89
2019-06-23 12:00:00 21.6 19 Sudoeste 24 Sudoeste 0 -- -- 89
2019-06-23 11:00:00 21.4 20 Sudoeste 25 Sudoeste 0 -- -- 88
2019-06-23 10:00:00 21.4 16 Sudoeste 24 Sudoeste 0 -- -- 89
2019-06-23 09:00:00 21.4 10 Oeste 20 Oeste 0 -- -- 86
2019-06-23 08:00:00 20.5 10 Oeste 19 Sudoeste 0 -- -- 91
2019-06-23 07:00:00 20 9 Oeste 19 Oeste 0 -- -- 92
2019-06-23 06:00:00 19.8 8 Oeste 15 Sudoeste 0 -- -- 91
2019-06-23 05:00:00 19.5 9 Sudoeste 12 Sudoeste 0 -- -- 93
2019-06-23 04:00:00 20 8 Sudoeste 11 Sudoeste 0 -- -- 93
2019-06-23 03:00:00 20.4 7 Oeste 14 Oeste 0 -- -- 91
2019-06-23 02:00:00 20.8 10 Sudoeste 19 Oeste 0 -- -- 90
2019-06-23 01:00:00 20.8 13 Oeste 19 Oeste 0 -- -- 90
2019-06-23 00:00:00 21.3 9 Sudoeste 18 Oeste 0 -- -- 85
2019-06-22 23:00:00 21.6 9 Sudoeste 21 Oeste 0 -- -- 79
2019-06-22 22:00:00 21.8 15 Sudoeste 32 Sudoeste 0 -- -- 78
2019-06-22 21:00:00 22 23 Sudoeste 37 Sudoeste 0 -- -- 77
2019-06-22 20:00:00 23.7 22 Sudoeste 34 Sudoeste 0 -- -- 62
2019-06-22 19:00:00 24.9 18 Sudoeste 49 Sudoeste 0 -- -- 57
2019-06-22 18:00:00 24.8 23 Sudoeste 46 Sudoeste 0 -- -- 61
2019-06-22 17:00:00 24.9 30 Sudoeste 45 Sudoeste 0 -- -- 57
2019-06-22 16:00:00 25.8 24 Sudoeste 45 Sudoeste 0 -- -- 52
2019-06-22 15:00:00 25.5 22 Sudoeste 37 Sudoeste 0 -- -- 52
2019-06-22 14:00:00 25.4 24 Sudoeste 38 Sudoeste 0 -- -- 51
2019-06-22 13:00:00 22.7 20 Sudoeste 31 Sur 0 -- -- 75
2019-06-22 12:00:00 22.3 24 Sudoeste 31 Sudoeste 0 -- -- 72
2019-06-22 11:00:00 22.9 19 Sudoeste 24 Sudoeste 0 -- -- 66
2019-06-22 10:00:00 23.9 7 Oeste 17 Oeste 0 -- -- 55
2019-06-22 09:00:00 22.6 10 Oeste 17 Oeste 0 -- -- 60
2019-06-22 08:00:00 21.9 4 Sur 10 Oeste 0 -- -- 72
2019-06-22 07:00:00 20.5 6 Sudoeste 13 Oeste 0 -- -- 76
2019-06-22 06:00:00 20.4 6 Oeste 12 Oeste 0 -- -- 77
2019-06-22 05:00:00 20.4 5 Sudoeste 10 Sudoeste 0 -- -- 84
2019-06-22 04:00:00 20.6 8 Sudoeste 12 Oeste 0 -- -- 74
2019-06-22 03:00:00 20.2 2 Sudeste 5 Este 0 -- -- 87
2019-06-22 02:00:00 21.2 3 Este 6 Nordeste 0 -- -- 80
2019-06-22 01:00:00 21.4 4 Oeste 8 Oeste 0 -- -- 75
2019-06-22 00:00:00 20.9 5 Sur 7 Sur 0 -- -- 78
2019-06-21 23:00:00 20.8 0 Calma 5 Sur 0 -- -- 79
2019-06-21 22:00:00 20.9 0 Calma 7 Este 0 -- -- 78
2019-06-21 21:00:00 21.4 3 Sudoeste 8 Sur 0 -- -- 78
2019-06-21 20:00:00 21.4 2 Sudoeste 10 Sudeste 0 -- -- 78
2019-06-21 19:00:00 22.6 4 Sudeste 12 Sudeste 0 -- -- 75
2019-06-21 18:00:00 23.6 9 Sudeste 18 Sudeste 0 -- -- 70
2019-06-21 17:00:00 23.7 13 Sudeste 17 Sudeste 0 -- -- 71
2019-06-21 16:00:00 23.5 12 Sur 17 Sur 0 -- -- 74
2019-06-21 15:00:00 23.6 10 Sur 18 Sudoeste 0 -- -- 71
2019-06-21 14:00:00 22.5 13 Sudoeste 23 Sudoeste 0 -- -- 72
2019-06-21 13:00:00 22.2 15 Sudoeste 22 Sudoeste 0 -- -- 81
2019-06-21 12:00:00 23.6 11 Sur 15 Sur 0 -- -- 78
2019-06-21 11:00:00 25.8 8 Sudeste 16 Este 0 -- -- 55
2019-06-21 10:00:00 24.7 4 Nordeste 16 Noroeste 0 -- -- 60
2019-06-21 09:00:00 22.3 9 Norte 19 Norte 0 -- -- 73
2019-06-21 08:00:00 20.7 8 Norte 15 Norte 0 -- -- 82
2019-06-21 07:00:00 19.7 8 Nordeste 20 Nordeste 0 -- -- 89
2019-06-21 06:00:00 19.6 10 Nordeste 16 Nordeste 0 -- -- 90
2019-06-21 05:00:00 19.4 7 Nordeste 12 Nordeste 0 -- -- 90
2019-06-21 04:00:00 19.1 6 Nordeste 13 Nordeste 0 -- -- 91
2019-06-21 03:00:00 19.3 7 Este 12 Este 0 -- -- 89
2019-06-21 02:00:00 19.4 8 Este 13 Este 0 -- -- 88
2019-06-21 01:00:00 19.5 6 Sudeste 13 Sudeste 0 -- -- 89
2019-06-21 00:00:00 19.9 9 Sudeste 13 Este 0 -- -- 90
2019-06-20 23:00:00 20.1 8 Este 18 Nordeste 0 -- -- 89
2019-06-20 22:00:00 19.9 14 Este 19 Nordeste 0 -- -- 90
2019-06-20 21:00:00 20.2 12 Este 21 Este 0 -- -- 89
2019-06-20 20:00:00 20.6 14 Este 18 Este 0 -- -- 89
2019-06-20 19:00:00 21.5 10 Este 16 Este 0 -- -- 86
2019-06-20 18:00:00 21.9 11 Sudeste 22 Sudeste 0 -- -- 82
2019-06-20 17:00:00 22.4 17 Este 21 Este 0 -- -- 78
2019-06-20 16:00:00 23.1 12 Este 16 Este 0 -- -- 74
2019-06-20 15:00:00 23.6 12 Sudeste 15 Sudeste 0 -- -- 73
2019-06-20 14:00:00 22.8 8 Este 14 Este 0 -- -- 78
2019-06-20 13:00:00 22.7 6 Sudeste 19 Este 0 -- -- 81
2019-06-20 12:00:00 21 15 Este 25 Este 0 -- -- 89
2019-06-20 11:00:00 20.3 22 Este 27 Este 0 -- -- 90
2019-06-20 10:00:00 20.2 19 Este 24 Sudeste 0 -- -- 91
2019-06-20 09:00:00 20.1 15 Sudeste 20 Este 0 -- -- 93
2019-06-20 08:00:00 20.8 6 Sudeste 11 Sudeste 0 -- -- 91
2019-06-20 07:00:00 19.9 4 Sudeste 11 Norte 0 -- -- 87
2019-06-20 06:00:00 19.6 6 Nordeste 13 Nordeste 0 -- -- 89
2019-06-20 05:00:00 19.2 4 Este 8 Este 0 -- -- 93
2019-06-20 04:00:00 19.2 6 Este 7 Este 0 -- -- 93
2019-06-20 03:00:00 19.2 3 Este 4 Este 0 -- -- 93
2019-06-20 02:00:00 19.3 3 Sudeste 4 Este 0 -- -- 92
2019-06-20 01:00:00 19.5 4 Este 9 Este 0 -- -- 92
2019-06-20 00:00:00 19.8 5 Este 9 Este 0 -- -- 92
2019-06-19 23:00:00 19.8 4 Este 9 Sudeste 0 -- -- 92
2019-06-19 22:00:00 20.1 5 Sur 15 Sudoeste 0 -- -- 91
2019-06-19 21:00:00 20.4 11 Sur 16 Sur 0 -- -- 89
2019-06-19 20:00:00 20.9 15 Sur 22 Sur 0 -- -- 87
2019-06-19 19:00:00 21.6 16 Sur 21 Sudoeste 0 -- -- 86
2019-06-19 18:00:00 22.2 12 Sur 23 Sudoeste 0 -- -- 87
2019-06-19 17:00:00 21.8 18 Sur 22 Sur 0 -- -- 90
2019-06-19 16:00:00 21.7 17 Sur 23 Sudoeste 0 -- -- 90
2019-06-19 15:00:00 21.2 22 Sudoeste 27 Sudoeste 0 -- -- 91
2019-06-19 14:00:00 21.1 23 Sudoeste 29 Sudoeste 0 -- -- 90
2019-06-19 13:00:00 21.1 25 Sudoeste 31 Sudoeste 0 -- -- 87
2019-06-19 12:00:00 20.6 23 Sudoeste 28 Sudoeste 0 -- -- 90
2019-06-19 11:00:00 20.7 24 Sudoeste 29 Sudoeste 0 -- -- 89
2019-06-19 10:00:00 21.5 13 Sudoeste 18 Sudoeste 0 -- -- 79
2019-06-19 09:00:00 21.5 9 Sudoeste 18 Oeste 0 -- -- 79
2019-06-19 08:00:00 20.2 11 Oeste 19 Oeste 0 -- -- 70
2019-06-19 07:00:00 19.5 8 Oeste 12 Oeste 0 -- -- 62
2019-06-19 06:00:00 19 0 Calma 9 Oeste 0 -- -- 65
2019-06-19 05:00:00 19.6 8 Oeste 16 Oeste 0 -- -- 63
2019-06-19 04:00:00 19.6 9 Oeste 14 Oeste 0 -- -- 64
2019-06-19 03:00:00 18.8 8 Sudoeste 12 Sudoeste 0 -- -- 80
2019-06-19 02:00:00 20 3 Sudoeste 9 Oeste 0 -- -- 68
2019-06-19 01:00:00 18.5 3 Sudoeste 14 Sudoeste 0 -- -- 89
2019-06-19 00:00:00 19.2 9 Sudoeste 13 Sudoeste 0 -- -- 92
2019-06-18 23:00:00 20.2 6 Sudoeste 17 Sudoeste 0 -- -- 79
2019-06-18 22:00:00 21.3 9 Sudoeste 20 Sudoeste 0 -- -- 67
2019-06-18 21:00:00 20.9 14 Sudoeste 21 Sudoeste 0 -- -- 78
2019-06-18 20:00:00 21.6 17 Sudoeste 27 Sudoeste 0 -- -- 76
2019-06-18 19:00:00 24.7 11 Sudoeste 29 Sudoeste 0 -- -- 49
2019-06-18 18:00:00 21.4 24 Sudoeste 34 Sudoeste 0 -- -- 82
2019-06-18 17:00:00 21.7 27 Sudoeste 33 Sudoeste 0 -- -- 79
2019-06-18 16:00:00 21.4 26 Sudoeste 34 Sudoeste 0 -- -- 77
2019-06-18 15:00:00 21.4 28 Sudoeste 35 Sudoeste 0 -- -- 78
2019-06-18 14:00:00 23.2 26 Sudoeste 34 Sudoeste 0 -- -- 59
2019-06-18 13:00:00 21.9 29 Sudoeste 36 Sudoeste 0 -- -- 70
2019-06-18 12:00:00 20.9 27 Sudoeste 32 Sudoeste 0 -- -- 88
2019-06-18 11:00:00 21 18 Sudoeste 23 Sur 0 -- -- 87
2019-06-18 10:00:00 23.6 12 Sudoeste 17 Sudoeste 0 -- -- 51
2019-06-18 09:00:00 22.7 6 Sudoeste 11 Oeste 0 -- -- 56
2019-06-18 08:00:00 21 0 Calma 7 Oeste 0 -- -- 66
2019-06-18 07:00:00 19.2 0 Calma 6 Oeste 0 -- -- 69
2019-06-18 06:00:00 19.6 5 Oeste 17 Oeste 0 -- -- 64
2019-06-18 05:00:00 19.6 6 Oeste 14 Oeste 0 -- -- 63
2019-06-18 04:00:00 19.5 10 Oeste 13 Oeste 0 -- -- 69
2019-06-18 03:00:00 19.3 6 Oeste 15 Oeste 0 -- -- 79
2019-06-18 02:00:00 19.4 10 Oeste 18 Oeste 0 -- -- 89
2019-06-18 01:00:00 20.3 8 Sudoeste 17 Oeste 0 -- -- 79
2019-06-18 00:00:00 20.2 11 Oeste 19 Sudoeste 0 -- -- 78
2019-06-17 23:00:00 20.8 7 Oeste 12 Oeste 0 -- -- 74
2019-06-17 22:00:00 21.2 7 Sudoeste 19 Sudoeste 0 -- -- 74
2019-06-17 21:00:00 21.8 12 Sudoeste 36 Sudoeste 0 -- -- 66
2019-06-17 20:00:00 21.6 21 Sudoeste 29 Sudoeste 0 -- -- 75
2019-06-17 19:00:00 22 21 Sudoeste 33 Sudoeste 0 -- -- 75
2019-06-17 18:00:00 22.5 23 Sudoeste 31 Sudoeste 0 -- -- 73
2019-06-17 17:00:00 24 21 Sudoeste 34 Sudoeste 0 -- -- 59
2019-06-17 16:00:00 21.3 26 Sudoeste 32 Sudoeste 0 -- -- 80
2019-06-17 15:00:00 20.7 24 Sudoeste 31 Sudoeste 0 -- -- 90
2019-06-17 14:00:00 21.5 12 Sur 20 Sudoeste 0 -- -- 86
2019-06-17 13:00:00 21.4 12 Sur 19 Sur 0 -- -- 87
2019-06-17 12:00:00 22.3 14 Sur 21 Sudoeste 0 -- -- 75
2019-06-17 11:00:00 21.8 10 Sudoeste 14 Sudoeste 0 -- -- 72
2019-06-17 10:00:00 21.3 8 Sur 12 Sudoeste 0 -- -- 68
2019-06-17 09:00:00 22.1 2 Norte 9 Nordeste 0 -- -- 61
2019-06-17 08:00:00 19.5 8 Noroeste 16 Oeste 0 -- -- 70
2019-06-17 07:00:00 18.2 9 Oeste 13 Oeste 0 -- -- 71
2019-06-17 06:00:00 18.1 4 Oeste 12 Norte 0 -- -- 69
2019-06-17 05:00:00 18.2 5 Norte 9 Norte 0 -- -- 65
2019-06-17 04:00:00 18.5 8 Oeste 17 Oeste 0 -- -- 65
2019-06-17 03:00:00 19.1 11 Oeste 15 Oeste 0 -- -- 60
2019-06-17 02:00:00 19.4 4 Sudoeste 9 Oeste 0 -- -- 61
2019-06-17 01:00:00 19.9 7 Oeste 10 Sudoeste 0 -- -- 58
2019-06-17 00:00:00 20.3 6 Oeste 19 Oeste 0 -- -- 56
2019-06-16 23:00:00 20.5 11 Oeste 25 Oeste 0 -- -- 56
2019-06-16 22:00:00 20.4 12 Sudoeste 26 Oeste 0 -- -- 60
2019-06-16 21:00:00 20.5 14 Sudoeste 35 Sudoeste 0 -- -- 67
2019-06-16 20:00:00 21 14 Sudoeste 32 Sudoeste 0 -- -- 66
2019-06-16 19:00:00 21.7 18 Sudoeste 36 Sudoeste 0 -- -- 65
2019-06-16 18:00:00 21.4 23 Sudoeste 36 Sudoeste 0 -- -- 65
2019-06-16 17:00:00 21.6 24 Sudoeste 34 Sudoeste 0 -- -- 66
2019-06-16 16:00:00 21.6 25 Sudoeste 33 Sudoeste 0 -- -- 66
2019-06-16 15:00:00 21.9 26 Sudoeste 35 Sudoeste 0 -- -- 64
2019-06-16 14:00:00 20.4 23 Sur 69 Sur 0 -- -- 84
2019-06-16 13:00:00 20.5 15 Sudoeste 21 Sudoeste 0 -- -- 79
2019-06-16 12:00:00 -- 9 Sur 16 Este 0 -- -- --
2019-06-16 11:00:00 -- 14 Este 16 Este 0 -- -- --
2019-06-16 10:00:00 -- 13 Este 15 Este 0 -- -- --
2019-06-16 09:00:00 -- 9 Este 12 Este 0 -- -- --
2019-06-16 08:00:00 19 7 Nordeste 12 Norte 0 -- -- 79
2019-06-16 07:00:00 17.3 5 Nordeste 12 Norte 0 -- -- 85
2019-06-16 06:00:00 17.6 0 Calma 14 Oeste 0 -- -- 83
2019-06-16 05:00:00 17.9 5 Oeste 7 Oeste 0 -- -- 82
2019-06-16 04:00:00 17.9 2 Oeste 9 Oeste 0 -- -- 85
2019-06-16 03:00:00 18.1 5 Oeste 11 Oeste 0 -- -- 83
2019-06-16 02:00:00 18.3 5 Oeste 13 Oeste 0 -- -- 84
2019-06-16 01:00:00 18 0 Calma 9 Sudoeste 0 -- -- 84
2019-06-16 00:00:00 18.1 5 Sudoeste 6 Sudoeste 0 -- -- 86
2019-06-15 23:00:00 18.1 0 Calma 8 Este 0 -- -- 88
2019-06-15 22:00:00 18.3 6 Este 10 Este 0 -- -- 87
2019-06-15 21:00:00 19.1 7 Este 13 Este 0 -- -- 86
2019-06-15 20:00:00 19.1 12 Este 19 Este 0 -- -- 86
2019-06-15 19:00:00 19 14 Este 19 Este 0 -- -- 86
2019-06-15 18:00:00 19.9 16 Sudeste 22 Sudeste 0 -- -- 83
2019-06-15 17:00:00 19.9 18 Sudeste 24 Sudeste 0 -- -- 86
2019-06-15 16:00:00 19.8 18 Sudeste 22 Sudeste 0 -- -- 90
2019-06-15 15:00:00 19.4 16 Este 20 Sudeste 0 -- -- 90
2019-06-15 14:00:00 20.8 18 Este 21 Este 0 -- -- 86
2019-06-15 13:00:00 21.5 14 Sudeste 21 Este 0 -- -- 80
2019-06-15 12:00:00 21 19 Este 22 Este 0 -- -- 81
2019-06-15 11:00:00 22.7 7 Sudeste 10 Sudeste 0 -- -- 78
2019-06-15 10:00:00 21.9 5 Sudeste 11 Sudeste 0 -- -- 76
2019-06-15 09:00:00 20.8 6 Este 11 Este 0 -- -- 76
2019-06-15 08:00:00 18.6 5 Nordeste 9 Noroeste 0 -- -- 85
2019-06-15 07:00:00 17.8 6 Norte 16 Nordeste 0 -- -- 85
2019-06-15 06:00:00 17.3 9 Este 12 Este 0 -- -- 85
2019-06-15 05:00:00 18.8 3 Nordeste 10 Oeste 0 -- -- 86
2019-06-15 04:00:00 18.2 6 Oeste 14 Sudoeste 0 -- -- 86
2019-06-15 03:00:00 18.3 9 Sudoeste 13 Sudoeste 0 -- -- 91
2019-06-15 02:00:00 19.2 0 Calma 9 Oeste 0 -- -- 75
2019-06-15 01:00:00 19.6 6 Oeste 11 Oeste 0 -- -- 71
2019-06-15 00:00:00 20.1 4 Sudoeste 18 Oeste 0 -- -- 65
2019-06-14 23:00:00 20.3 2 Oeste 16 Oeste 0 -- -- 69
2019-06-14 22:00:00 20.8 10 Oeste 21 Sudoeste 0 -- -- 69
2019-06-14 21:00:00 21.5 10 Sudoeste 32 Sudoeste 0 -- -- 68
2019-06-14 20:00:00 21.5 17 Sudoeste 40 Oeste 0 -- -- 70
2019-06-14 19:00:00 22.1 24 Sudoeste 47 Sudoeste 0 -- -- 67
2019-06-14 18:00:00 22.2 30 Sudoeste 47 Sudoeste 0 -- -- 64
2019-06-14 17:00:00 22.7 25 Sudoeste 48 Sudoeste 0 -- -- 61
2019-06-14 16:00:00 23.3 24 Sudoeste 55 Sudoeste 0 -- -- 59
2019-06-14 15:00:00 23.8 28 Sudoeste 46 Sudoeste 0 -- -- 55
2019-06-14 14:00:00 22.9 18 Sudoeste 31 Sudoeste 0 -- -- 56
2019-06-14 13:00:00 21.8 20 Sudoeste 29 Sudoeste 0 -- -- 64
2019-06-14 12:00:00 23.2 14 Sur 25 Oeste 0 -- -- 61
2019-06-14 11:00:00 21.7 5 Norte 45 Este 0 -- -- 63
2019-06-14 10:00:00 21.1 27 Este 35 Este 0 -- -- 63
2019-06-14 09:00:00 20.4 14 Este 22 Este 0 -- -- 67
2019-06-14 08:00:00 21.5 5 Este 19 Nordeste 0 -- -- 53
2019-06-14 07:00:00 19.4 6 Norte 15 Norte 0 -- -- 49
2019-06-14 06:00:00 18.9 10 Norte 18 Norte 0 -- -- 44
2019-06-14 05:00:00 18.9 10 Norte 24 Norte 0 -- -- 41
2019-06-14 04:00:00 19 14 Norte 27 Norte 0 -- -- 41
2019-06-14 03:00:00 18.5 14 Norte 22 Norte 0 -- -- 41
2019-06-14 02:00:00 18.7 12 Norte 23 Nordeste 0 -- -- 38
2019-06-14 01:00:00 18.7 10 Nordeste 18 Nordeste 0 -- -- 40
2019-06-14 00:00:00 18.5 11 Nordeste 22 Nordeste 0 -- -- 47
2019-06-13 23:00:00 18.2 14 Nordeste 23 Este 0 -- -- 62
2019-06-13 22:00:00 17.8 17 Este 32 Este 0 -- -- 67
2019-06-13 21:00:00 17.6 22 Este 30 Este 0 -- -- 71
2019-06-13 20:00:00 17.8 25 Este 29 Este 0 -- -- 78
2019-06-13 19:00:00 17.9 22 Este 27 Este 0 -- -- 76
2019-06-13 18:00:00 18.7 21 Este 25 Este 0 -- -- 72
2019-06-13 17:00:00 19.2 20 Este 27 Este 0 -- -- 70
2019-06-13 16:00:00 19.3 23 Este 27 Este 0 -- -- 71
2019-06-13 15:00:00 19.5 20 Sudeste 27 Este 0 -- -- 74
2019-06-13 14:00:00 20.3 17 Sudeste 20 Sudeste 0 -- -- 72
2019-06-13 13:00:00 20.1 15 Sudeste 19 Sudeste 0 -- -- 71
2019-06-13 12:00:00 20.1 14 Sudeste 17 Sudeste 0 -- -- 70
2019-06-13 11:00:00 19.9 12 Sudeste 14 Sudeste 0 -- -- 69
2019-06-13 10:00:00 19.1 8 Este 16 Este 0 -- -- 62
2019-06-13 09:00:00 17.8 7 Norte 13 Norte 0 -- -- 66
2019-06-13 08:00:00 15.7 8 Norte 16 Norte 0 -- -- 75
2019-06-13 07:00:00 14.2 8 Norte 16 Norte 0 -- -- 83
2019-06-13 06:00:00 14 8 Norte 12 Norte 0 -- -- 85
2019-06-13 05:00:00 14.5 7 Norte 12 Norte 0 -- -- 85
2019-06-13 04:00:00 14.8 7 Norte 13 Norte 0 -- -- 86
2019-06-13 03:00:00 15.3 6 Norte 10 Norte 0 -- -- 84
2019-06-13 02:00:00 16 5 Norte 9 Norte 0 -- -- 81
2019-06-13 01:00:00 16.4 0 Calma 10 Sur 0 -- -- 83
2019-06-13 00:00:00 16.6 6 Sur 15 Sudoeste 0 -- -- 84
2019-06-12 23:00:00 17 4 Sudoeste 13 Oeste 0 -- -- 78
2019-06-12 22:00:00 17 7 Oeste 22 Sudoeste 0 -- -- 75
2019-06-12 21:00:00 17.6 13 Sudoeste 27 Sudoeste 0 -- -- 72
2019-06-12 20:00:00 17.5 18 Sudoeste 27 Sudoeste 0 -- -- 72
2019-06-12 19:00:00 17.4 23 Sudoeste 28 Sur 0 -- -- 72
2019-06-12 18:00:00 17.7 21 Sudoeste 30 Sudoeste 0 -- -- 70
2019-06-12 17:00:00 17.8 24 Sudoeste 33 Sudoeste 0 -- -- 67
2019-06-12 16:00:00 17.9 22 Sudoeste 31 Sur 0 -- -- 64
2019-06-12 15:00:00 17.6 22 Sudoeste 31 Sudoeste 0 -- -- 62
2019-06-12 14:00:00 17.6 23 Sudoeste 31 Sudoeste 0 -- -- 62
2019-06-12 13:00:00 17.2 25 Sudoeste 31 Sudoeste 0 -- -- 73
2019-06-12 12:00:00 17.1 21 Sur 28 Sur 0 -- -- 74
2019-06-12 11:00:00 17.1 12 Sur 22 Sudoeste 0 -- -- 74
2019-06-12 10:00:00 17.2 9 Sur 15 Oeste 0 -- -- 65
2019-06-12 09:00:00 15.7 6 Norte 26 Norte 0 -- -- 76
2019-06-12 08:00:00 15 6 Norte 9 Norte 0 -- -- 77
2019-06-12 07:00:00 13.3 4 Noroeste 11 Noroeste 0 -- -- 85
2019-06-12 06:00:00 12.8 5 Noroeste 7 Noroeste 0 -- -- 88
2019-06-12 05:00:00 12.8 3 Norte 10 Noroeste 0 -- -- 87
2019-06-12 04:00:00 13.3 5 Noroeste 10 Noroeste 0 -- -- 87
2019-06-12 03:00:00 13.4 7 Oeste 13 Oeste 0 -- -- 89
2019-06-12 02:00:00 13.4 8 Oeste 13 Oeste 0 -- -- 91
2019-06-12 01:00:00 13.6 5 Oeste 9 Oeste 0 -- -- 91
2019-06-12 00:00:00 13.5 2 Noroeste 9 Nordeste 0 -- -- 92
2019-06-11 23:00:00 13.5 8 Nordeste 25 Este 0 -- -- 92
2019-06-11 22:00:00 13.9 19 Este 24 Este 0 -- -- 90
2019-06-11 21:00:00 13.7 17 Este 23 Este 0.4 -- -- 91
2019-06-11 20:00:00 13.6 12 Este 18 Este 1.5 -- -- 93
2019-06-11 19:00:00 13.4 2 Sudoeste 19 Este 1.1 -- -- 93
2019-06-11 18:00:00 13.8 5 Sudeste 12 Norte 1.9 -- -- 93
2019-06-11 17:00:00 13.6 9 Noroeste 15 Noroeste 2.6 -- -- 92
2019-06-11 16:00:00 13.9 3 Norte 26 Norte 3.6 -- -- 92
2019-06-11 15:00:00 13.6 14 Norte 25 Norte 1.2 -- -- 90
2019-06-11 14:00:00 13.6 12 Norte 35 Norte 2.5 -- -- 91
2019-06-11 13:00:00 13.8 18 Noroeste 31 Norte 0.2 -- -- 89
2019-06-11 12:00:00 14.2 11 Norte 22 Norte 1.5 -- -- 90
2019-06-11 11:00:00 14.4 12 Norte 20 Norte 5.1 -- -- 91
2019-06-11 10:00:00 15.7 12 Este 20 Este 2.4 -- -- 93
2019-06-11 09:00:00 16.1 9 Este 14 Este 1.4 -- -- 92
2019-06-11 08:00:00 16.6 9 Este 15 Este 1.6 -- -- 92
2019-06-11 07:00:00 16.4 11 Este 17 Sudeste 2.2 -- -- 89
2019-06-11 06:00:00 17.1 6 Este 18 Sudeste 0 -- -- 88
2019-06-11 05:00:00 17 11 Sudeste 23 Sudeste 0.5 -- -- 91
2019-06-11 04:00:00 17.6 7 Sur 26 Sur 0.2 -- -- 92
2019-06-11 03:00:00 17.7 19 Sur 64 Sur 0 -- -- 91
2019-06-11 02:00:00 18.2 20 Sudeste 33 Sur 0 -- -- 90
2019-06-11 01:00:00 18.1 17 Sur 30 Sudeste 0 -- -- 91
2019-06-11 00:00:00 18.1 25 Sudeste 35 Sudeste 0 -- -- 90
2019-06-10 23:00:00 19.3 20 Sudeste 27 Sudeste 0 -- -- 88
2019-06-10 22:00:00 19.5 19 Sudeste 32 Sudeste 0 -- -- 77
2019-06-10 21:00:00 21.4 12 Sur 33 Sudoeste 0 -- -- 59
2019-06-10 20:00:00 22.2 19 Sudoeste 33 Sudoeste 0 -- -- 54
2019-06-10 19:00:00 22.6 23 Sudoeste 37 Sudoeste 0 -- -- 52
2019-06-10 18:00:00 21.1 25 Sudoeste 33 Sudoeste 0 -- -- 73
2019-06-10 17:00:00 23.8 22 Sudoeste 31 Sudoeste 0 -- -- 50
2019-06-10 16:00:00 22.7 23 Sudoeste 31 Sur 0 -- -- 57
2019-06-10 15:00:00 23.5 22 Sudoeste 31 Sudoeste 0 -- -- 48
2019-06-10 14:00:00 25 21 Sudoeste 30 Sudoeste 0 -- -- 43
2019-06-10 13:00:00 25 19 Sudoeste 27 Sudoeste 0 -- -- 43
2019-06-10 12:00:00 25 15 Sudoeste 23 Sur 0 -- -- 42
2019-06-10 11:00:00 26 5 Sur 17 Norte 0 -- -- 39
2019-06-10 10:00:00 23.5 11 Norte 19 Noroeste 0 -- -- 46
2019-06-10 09:00:00 21.2 12 Norte 19 Norte 0 -- -- 58
2019-06-10 08:00:00 19.8 6 Nordeste 12 Nordeste 0 -- -- 62
2019-06-10 07:00:00 18.6 5 Oeste 12 Nordeste 0 -- -- 70
2019-06-10 06:00:00 17.5 3 Nordeste 10 Sudoeste 0 -- -- 80
2019-06-10 05:00:00 18 8 Sudoeste 12 Sudoeste 0 -- -- 93
2019-06-10 04:00:00 19.3 4 Sudoeste 15 Oeste 0 -- -- 77
2019-06-10 03:00:00 19.1 6 Oeste 13 Sudoeste 0 -- -- 85
2019-06-10 02:00:00 19.2 5 Sudoeste 11 Sudoeste 0 -- -- 88
2019-06-10 01:00:00 18.8 2 Norte 7 Sur 0 -- -- 91
2019-06-10 00:00:00 19.5 4 Este 15 Norte 0 -- -- 89
2019-06-09 23:00:00 18.4 5 Noroeste 33 Sudoeste 0 -- -- 92
2019-06-09 22:00:00 19 6 Sur 24 Sur 0 -- -- 91
2019-06-09 21:00:00 19.5 7 Sur 16 Sur 0 -- -- 85
2019-06-09 20:00:00 18.9 11 Sudoeste 15 Sudoeste 0 -- -- 90
2019-06-09 19:00:00 19 10 Sur 17 Sur 0 -- -- 90
2019-06-09 18:00:00 19.7 11 Sudoeste 16 Sudoeste 0 -- -- 90
2019-06-09 17:00:00 21.1 6 Sudeste 17 Este 0 -- -- 81
2019-06-09 16:00:00 22.3 8 Este 23 Este 0 -- -- 72
2019-06-09 15:00:00 21.4 9 Este 17 Nordeste 0 -- -- 70
2019-06-09 14:00:00 21.9 17 Sudeste 24 Sur 0 -- -- 57
2019-06-09 13:00:00 25.7 10 Sudeste 18 Nordeste 0 -- -- 36
2019-06-09 12:00:00 24.7 10 Noroeste 21 Noroeste 0 -- -- 35
2019-06-09 11:00:00 23.2 10 Nordeste 28 Nordeste 0 -- -- 38
2019-06-09 10:00:00 20 14 Nordeste 41 Nordeste 0 -- -- 53
2019-06-09 09:00:00 19.6 18 Este 21 Este 0 -- -- 61
2019-06-09 08:00:00 20.8 5 Nordeste 14 Nordeste 0 -- -- 37
2019-06-09 07:00:00 20.5 9 Norte 19 Norte 0 -- -- 36
2019-06-09 06:00:00 20 13 Norte 25 Norte 0 -- -- 34
2019-06-09 05:00:00 20.2 13 Norte 21 Norte 0 -- -- 33
2019-06-09 04:00:00 19.9 10 Norte 19 Norte 0 -- -- 35
2019-06-09 03:00:00 20.2 10 Norte 19 Norte 0 -- -- 33
2019-06-09 02:00:00 20.4 8 Norte 14 Nordeste 0 -- -- 33
2019-06-09 01:00:00 19.8 3 Este 9 Nordeste 0 -- -- 35
2019-06-09 00:00:00 20.2 6 Norte 10 Nordeste 0 -- -- 35
2019-06-08 23:00:00 19.9 6 Nordeste 12 Nordeste 0 -- -- 38
2019-06-08 22:00:00 19.1 8 Nordeste 14 Este 0 -- -- 50
2019-06-08 21:00:00 18.5 10 Nordeste 17 Este 0 -- -- 58
2019-06-08 20:00:00 19.2 13 Este 19 Este 0 -- -- 63
2019-06-08 19:00:00 19.6 17 Este 24 Este 0 -- -- 65
2019-06-08 18:00:00 20 19 Este 26 Este 0 -- -- 61
2019-06-08 17:00:00 20.2 21 Este 27 Este 0 -- -- 60
2019-06-08 16:00:00 20.3 20 Este 26 Este 0 -- -- 57
2019-06-08 15:00:00 20.3 21 Este 24 Este 0 -- -- 61
2019-06-08 14:00:00 20.1 19 Este 27 Este 0 -- -- 64
2019-06-08 13:00:00 20.6 20 Este 23 Sudeste 0 -- -- 62
2019-06-08 12:00:00 21.3 13 Sudeste 21 Sudeste 0 -- -- 54
2019-06-08 11:00:00 20.4 16 Sudeste 19 Este 0 -- -- 62
2019-06-08 10:00:00 20.2 9 Sudeste 13 Sudeste 0 -- -- 57
2019-06-08 09:00:00 20 5 Sudeste 17 Norte 0 -- -- 50
2019-06-08 08:00:00 17.7 8 Norte 19 Norte 0 -- -- 54
2019-06-08 07:00:00 16.4 10 Norte 23 Norte 0 -- -- 60
2019-06-08 06:00:00 16.6 8 Norte 18 Este 0 -- -- 65
2019-06-08 05:00:00 17.2 14 Este 19 Este 0 -- -- 70
2019-06-08 04:00:00 17.3 10 Sudeste 14 Sudeste 0 -- -- 75
2019-06-08 03:00:00 17.2 4 Este 12 Este 0 -- -- 75
2019-06-08 02:00:00 17.4 10 Este 20 Este 0 -- -- 77
2019-06-08 01:00:00 17.6 11 Este 19 Este 0 -- -- 83
2019-06-08 00:00:00 17.6 10 Nordeste 21 Este 0 -- -- 89
2019-06-07 23:00:00 17.7 17 Este 31 Este 0 -- -- 88
2019-06-07 22:00:00 18 29 Este 53 Nordeste 0 -- -- 86
2019-06-07 21:00:00 25.9 9 Norte 25 Nordeste 0 -- -- 27
2019-06-07 20:00:00 23.3 5 Oeste 23 Sudoeste 0 -- -- 49
2019-06-07 19:00:00 23.8 15 Sudoeste 29 Sudoeste 0 -- -- 60
2019-06-07 18:00:00 23.3 23 Sudoeste 34 Sudoeste 0 -- -- 67
2019-06-07 17:00:00 24 16 Sudoeste 37 Sudoeste 0 -- -- 67
2019-06-07 16:00:00 23.5 23 Sudoeste 36 Sudoeste 0 -- -- 70
2019-06-07 15:00:00 22.3 24 Sudoeste 40 Sudoeste 0 -- -- 73
2019-06-07 14:00:00 20 29 Sudoeste 35 Sudoeste 0 -- -- 82
2019-06-07 13:00:00 20.1 25 Sudoeste 35 Sur 0 -- -- 84
2019-06-07 12:00:00 20.1 29 Sudoeste 37 Sudoeste 0 -- -- 78
2019-06-07 11:00:00 19.8 22 Sudoeste 27 Sur 0 -- -- 84
2019-06-07 10:00:00 19.8 13 Sur 21 Sur 0 -- -- 87
2019-06-07 09:00:00 18.6 7 Sur 12 Sur 0 -- -- 93
2019-06-07 08:00:00 18.2 6 Este 11 Este 0 -- -- 93
2019-06-07 07:00:00 17.8 10 Este 18 Este 0 -- -- 93
2019-06-07 06:00:00 17.9 9 Nordeste 17 Nordeste 0 -- -- 93
2019-06-07 05:00:00 17.9 7 Nordeste 14 Este 0 -- -- 93
2019-06-07 04:00:00 18 8 Nordeste 12 Este 0 -- -- 92
2019-06-07 03:00:00 17.7 8 Nordeste 15 Este 0 -- -- 89
2019-06-07 02:00:00 17.6 10 Este 14 Este 0 -- -- 88
2019-06-07 01:00:00 17.5 11 Este 17 Este 0 -- -- 89
2019-06-07 00:00:00 17.3 11 Nordeste 15 Este 0 -- -- 90
2019-06-06 23:00:00 17.3 10 Este 14 Este 0 -- -- 90
2019-06-06 22:00:00 17.7 10 Este 13 Sudeste 0 -- -- 89
2019-06-06 21:00:00 18.3 7 Sudeste 15 Sudeste 0 -- -- 85
2019-06-06 20:00:00 19.4 11 Sudeste 18 Sudeste 0 -- -- 79
2019-06-06 19:00:00 19.7 12 Sur 20 Sur 0 -- -- 78
2019-06-06 18:00:00 19.9 14 Sur 19 Sur 0 -- -- 77
2019-06-06 17:00:00 19.4 14 Sur 23 Sur 0 -- -- 76
2019-06-06 16:00:00 19.5 19 Sur 25 Sur 0 -- -- 76
2019-06-06 15:00:00 19.3 18 Sur 25 Sur 0 -- -- 78
2019-06-06 14:00:00 19.4 17 Sur 27 Sur 0 -- -- 78
2019-06-06 13:00:00 19.1 21 Sur 28 Sur 0 -- -- 77
2019-06-06 12:00:00 19.4 20 Sur 26 Sur 0 -- -- 77
2019-06-06 11:00:00 18.7 17 Sur 23 Sur 0 -- -- 78
2019-06-06 10:00:00 19 13 Sur 17 Sur 0 -- -- 77
2019-06-06 09:00:00 17.9 8 Sur 13 Sur 0 -- -- 82
2019-06-06 08:00:00 17.4 10 Sur 14 Sur 0 -- -- 82
2019-06-06 07:00:00 16.6 9 Sur 14 Sur 0 -- -- 86
2019-06-06 06:00:00 16.4 9 Sur 15 Sur 0 -- -- 85
2019-06-06 05:00:00 16.2 10 Sudoeste 12 Sudoeste 0 -- -- 85
2019-06-06 04:00:00 16.5 10 Sudoeste 13 Sudoeste 0 -- -- 85
2019-06-06 03:00:00 16.5 9 Sudoeste 13 Sur 0 -- -- 85
2019-06-06 02:00:00 16.5 9 Sur 14 Sudoeste 0 -- -- 88
2019-06-06 01:00:00 16.7 8 Sudoeste 14 Sur 0 -- -- 86
2019-06-06 00:00:00 17 9 Sudeste 17 Sudeste 0 -- -- 85
2019-06-05 23:00:00 17.1 15 Sudeste 24 Este 0 -- -- 84
2019-06-05 22:00:00 17.9 24 Este 41 Sudeste 0 -- -- 82
2019-06-05 21:00:00 21.9 14 Oeste 31 Noroeste 0 -- -- 39
2019-06-05 20:00:00 22.8 16 Oeste 35 Oeste 0 -- -- 38
2019-06-05 19:00:00 23.2 9 Noroeste 33 Noroeste 0 -- -- 41
2019-06-05 18:00:00 23.2 20 Noroeste 51 Noroeste 0 -- -- 38
2019-06-05 17:00:00 24 19 Noroeste 52 Noroeste 0 -- -- 42
2019-06-05 16:00:00 24.1 19 Oeste 48 Oeste 0 -- -- 48
2019-06-05 15:00:00 21.3 16 Sur 23 Sur 0 -- -- 85
2019-06-05 14:00:00 22.3 10 Sudeste 21 Este 0 -- -- 79
2019-06-05 13:00:00 21.2 14 Este 17 Este 0 -- -- 81
2019-06-05 12:00:00 20.9 7 Este 26 Este 0 -- -- 82
2019-06-05 11:00:00 19.1 18 Este 30 Este 0 -- -- 86
2019-06-05 10:00:00 18.6 18 Este 24 Este 0 -- -- 90
2019-06-05 09:00:00 18 16 Este 19 Este 0 -- -- 91
2019-06-05 08:00:00 17.5 15 Este 23 Este 0 -- -- 93
2019-06-05 07:00:00 17.8 17 Este 24 Este 0 -- -- 90
2019-06-05 06:00:00 17.7 11 Nordeste 19 Nordeste 0 -- -- 84
2019-06-05 05:00:00 17.8 7 Nordeste 11 Norte 0 -- -- 80
2019-06-05 04:00:00 17.7 7 Norte 14 Nordeste 0 -- -- 76
2019-06-05 03:00:00 18.3 8 Norte 13 Nordeste 0 -- -- 75
2019-06-05 02:00:00 18.4 6 Este 9 Este 0 -- -- 82
2019-06-05 01:00:00 18.4 3 Este 5 Este 0 -- -- 85
2019-06-05 00:00:00 18.7 0 Calma 4 Nordeste 0 -- -- 88
2019-06-04 23:00:00 18.6 3 Nordeste 10 Este 0 -- -- 88
2019-06-04 22:00:00 18.7 10 Este 13 Este 0 -- -- 91
2019-06-04 21:00:00 20.5 5 Sudeste 15 Sudeste 0 -- -- 86
2019-06-04 20:00:00 20.9 10 Sur 15 Sur 0 -- -- 86
2019-06-04 19:00:00 21 9 Sur 15 Sur 0 -- -- 85
2019-06-04 18:00:00 20.9 12 Sur 22 Sur 0 -- -- 84
2019-06-04 17:00:00 20.5 17 Sur 24 Sudoeste 0 -- -- 87
2019-06-04 16:00:00 20.3 18 Sur 28 Sur 0 -- -- 87
2019-06-04 15:00:00 20.5 18 Sur 28 Sur 0 -- -- 87
2019-06-04 14:00:00 20 21 Sur 30 Sur 0 -- -- 87
2019-06-04 13:00:00 20 21 Sur 31 Sur 0 -- -- 86
2019-06-04 12:00:00 19.7 22 Sudoeste 27 Sudoeste 0 -- -- 89
2019-06-04 11:00:00 19.4 17 Sur 23 Sur 0 -- -- 89
2019-06-04 10:00:00 19.2 15 Sur 20 Sur 0 -- -- 86
2019-06-04 09:00:00 19.5 8 Sudoeste 14 Sur 0 -- -- 70
2019-06-04 08:00:00 18.4 5 Sur 8 Sudoeste 0 -- -- 75
2019-06-04 07:00:00 18.9 4 Sudoeste 12 Oeste 0 -- -- 68
2019-06-04 06:00:00 18.9 6 Oeste 12 Oeste 0 -- -- 61
2019-06-04 05:00:00 19.1 4 Sudoeste 10 Oeste 0 -- -- 58
2019-06-04 04:00:00 19 4 Oeste 8 Oeste 0 -- -- 56
2019-06-04 03:00:00 19.6 3 Oeste 9 Oeste 0 -- -- 54
2019-06-04 02:00:00 18.8 6 Sudoeste 9 Oeste 0 -- -- 69
2019-06-04 01:00:00 19.7 5 Oeste 11 Oeste 0 -- -- 69
2019-06-04 00:00:00 19.5 10 Oeste 18 Oeste 0 -- -- 78
2019-06-03 23:00:00 19.4 7 Sudoeste 18 Sudoeste 0 -- -- 83
2019-06-03 22:00:00 18.5 6 Sudoeste 18 Sudoeste 0 -- -- 88
2019-06-03 21:00:00 18.2 15 Sudoeste 22 Sur 0 -- -- 92
2019-06-03 20:00:00 19.3 19 Sudoeste 33 Sudoeste 0 -- -- 86
2019-06-03 19:00:00 21 21 Sudoeste 32 Sudoeste 0 -- -- 69
2019-06-03 18:00:00 21.2 23 Sudoeste 33 Sudoeste 0 -- -- 69
2019-06-03 17:00:00 24.5 22 Sudoeste 38 Sudoeste 0 -- -- 44
2019-06-03 16:00:00 22.4 25 Sudoeste 35 Sudoeste 0 -- -- 58
2019-06-03 15:00:00 21.8 25 Sudoeste -- -- -- -- -- 64
2019-06-03 14:00:00 20.1 29 Sudoeste 35 Sudoeste 0 -- -- 81
2019-06-03 13:00:00 20 27 Sudoeste 34 Sudoeste 0 -- -- 79
2019-06-03 12:00:00 20.8 25 Sudoeste 32 Sudoeste 0 -- -- 69
2019-06-03 11:00:00 21.2 22 Sudoeste 27 Sudoeste 0 -- -- 65
2019-06-03 10:00:00 20.5 15 Sudoeste 22 Sur 0 -- -- 74
2019-06-03 09:00:00 20.1 9 Sudoeste 23 Oeste 0 -- -- 69
2019-06-03 08:00:00 18.4 12 Oeste 25 Oeste 0 -- -- 78
2019-06-03 07:00:00 18.1 9 Sudoeste 15 Oeste 0 -- -- 59
2019-06-03 06:00:00 18.3 7 Oeste 9 Oeste 0 -- -- 58
2019-06-03 05:00:00 18.4 6 Oeste 10 Oeste 0 -- -- 61
2019-06-03 04:00:00 18.4 8 Oeste 12 Oeste 0 -- -- 59
2019-06-03 03:00:00 18.3 6 Oeste 14 Sudoeste 0 -- -- 64
2019-06-03 02:00:00 17.8 9 Sudoeste 12 Sudoeste 0 -- -- 82
2019-06-03 01:00:00 19.2 5 Sudoeste 10 Sudoeste 0 -- -- 59
2019-06-03 00:00:00 19.6 6 Sudoeste 14 Oeste 0 -- -- 51
2019-06-02 23:00:00 20.4 7 Sudoeste 14 Oeste 0 -- -- 44
2019-06-02 22:00:00 21.4 10 Oeste 20 Oeste 0 -- -- 38
2019-06-02 21:00:00 21.7 15 Sudoeste 36 Sudoeste 0 -- -- 39
2019-06-02 20:00:00 22.8 20 Sudoeste 36 Sudoeste 0 -- -- 39
2019-06-02 19:00:00 23.1 23 Sudoeste 35 Sudoeste 0 -- -- 39
2019-06-02 18:00:00 22.1 24 Sudoeste 36 Sudoeste 0 -- -- 48
2019-06-02 17:00:00 23.1 26 Sudoeste 42 Sudoeste 0 -- -- 40
2019-06-02 16:00:00 22.4 26 Sudoeste 43 Sudoeste 0 -- -- 47
2019-06-02 15:00:00 23.4 27 Sudoeste 42 Sudoeste 0 -- -- 39
2019-06-02 14:00:00 21.9 27 Sudoeste 38 Sudoeste 0 -- -- 56
2019-06-02 13:00:00 20.3 25 Sudoeste 37 Sudoeste 0 -- -- 75
2019-06-02 12:00:00 19.7 24 Sudoeste 31 Sudoeste 0 -- -- 82
2019-06-02 11:00:00 19.3 19 Sudoeste 29 Sudoeste 0 -- -- 87
2019-06-02 10:00:00 19.1 19 Sudoeste 25 Sudoeste 0 -- -- 87
2019-06-02 09:00:00 19.9 12 Sudoeste 17 Sudoeste 0 -- -- 59
2019-06-02 08:00:00 19.1 8 Sudoeste 14 Oeste 0 -- -- 57
2019-06-02 07:00:00 17.5 0 Calma 4 Este 0 -- -- 66
2019-06-02 06:00:00 16.3 3 Este 4 Sudeste 0 -- -- 68
2019-06-02 05:00:00 16.7 3 Este 5 Este 0 -- -- 76
2019-06-02 04:00:00 18 3 Sudoeste 9 Oeste 0 -- -- 67
2019-06-02 03:00:00 18.2 8 Oeste 15 Oeste 0 -- -- 75
2019-06-02 02:00:00 18.2 9 Oeste 18 Oeste 0 -- -- 81
2019-06-02 01:00:00 18.6 10 Oeste 17 Oeste 0 -- -- 80
2019-06-02 00:00:00 18.6 8 Oeste 17 Sudoeste 0 -- -- 80
2019-06-01 23:00:00 19.1 12 Sudoeste 18 Sudoeste 0 -- -- 69
2019-06-01 22:00:00 18.3 12 Sudoeste 18 Sudoeste 0 -- -- 78
2019-06-01 21:00:00 20.9 13 Sudoeste 27 Sudoeste 0 -- -- 47
2019-06-01 20:00:00 22.3 15 Sudoeste 32 Sudoeste 0 -- -- 40
2019-06-01 19:00:00 23.2 18 Sudoeste 39 Sudoeste 0 -- -- 37
2019-06-01 18:00:00 23.2 22 Sudoeste 40 Sudoeste 0 -- -- 38
2019-06-01 17:00:00 23.6 22 Sudoeste 37 Sudoeste 0 -- -- 42
2019-06-01 16:00:00 23.1 22 Sudoeste 36 Sudoeste 0 -- -- 48
2019-06-01 15:00:00 23.5 22 Sudoeste 36 Sudoeste 0 -- -- 47
2019-06-01 14:00:00 21.5 23 Sudoeste 31 Sudoeste 0 -- -- 66
2019-06-01 13:00:00 20.9 22 Sudoeste 30 Sudoeste 0 -- -- 69
2019-06-01 12:00:00 19 24 Sudoeste 28 Sudoeste 0 -- -- 83
2019-06-01 11:00:00 18.8 21 Sudoeste 28 Sudoeste 0 -- -- 88
2019-06-01 10:00:00 21.2 8 Sur 13 Sudoeste 0 -- -- 70
2019-06-01 09:00:00 21.2 4 Sudeste 8 Este 0 -- -- 57
2019-06-01 08:00:00 18.6 5 Este 8 Sudeste 0 -- -- 62
2019-06-01 07:00:00 18.3 4 Norte 10 Oeste 0 -- -- 61
2019-06-01 06:00:00 19 8 Oeste 13 Oeste 0 -- -- 56
2019-06-01 05:00:00 18.4 0 Calma 12 Sudoeste 0 -- -- 60
2019-06-01 04:00:00 18.3 3 Noroeste 9 Oeste 0 -- -- 61
2019-06-01 03:00:00 18.2 3 Sudeste 9 Oeste 0 -- -- 64
2019-06-01 02:00:00 18.9 4 Este 9 Oeste 0 -- -- 55
2019-06-01 01:00:00 20.1 6 Oeste 15 Oeste 0 -- -- 49
2019-06-01 00:00:00 19.8 7 Oeste 19 Oeste 0 -- -- 47
2019-05-31 23:00:00 20 9 Oeste 19 Oeste 0 -- -- 47
2019-05-31 22:00:00 20 11 Sudoeste 18 Sudoeste 0 -- -- 49
2019-05-31 21:00:00 19.8 14 Sudoeste 25 Sudoeste 0 -- -- 59
2019-05-31 20:00:00 21.2 17 Sudoeste 30 Sudoeste 0 -- -- 56
2019-05-31 19:00:00 21.5 21 Sudoeste 31 Sudoeste 0 -- -- 56
2019-05-31 18:00:00 20.7 21 Sudoeste 33 Sudoeste 0 -- -- 69
2019-05-31 17:00:00 19.5 24 Sudoeste 31 Sudoeste 0 -- -- 79
2019-05-31 16:00:00 19.4 25 Sudoeste 34 Sudoeste 0 -- -- 75
2019-05-31 15:00:00 19.5 27 Sudoeste 34 Sudoeste 0 -- -- 79
2019-05-31 14:00:00 19 20 Sudoeste 26 Sudoeste 0 -- -- 82
2019-05-31 13:00:00 20 12 Sudoeste 18 Sudoeste 0 -- -- 81
2019-05-31 12:00:00 19.5 12 Sur 15 Sudoeste 0 -- -- 76
2019-05-31 11:00:00 20.5 9 Sudoeste 13 Sudoeste 0 -- -- 54
2019-05-31 10:00:00 21.6 3 Sur 8 Sudeste 0 -- -- 54
2019-05-31 09:00:00 19.4 5 Sur 9 Sudeste 0 -- -- 66
2019-05-31 08:00:00 18.1 3 Sudeste 5 Sur 0 -- -- 79
2019-05-31 07:00:00 16.1 0 Calma 5 Sur 0 -- -- 83
2019-05-31 06:00:00 15 0 Calma 5 Norte 0 -- -- 86
2019-05-31 05:00:00 16.2 0 Calma 4 Sudoeste 0 -- -- 85
2019-05-31 04:00:00 16.5 0 Calma 5 Norte 0 -- -- 80
2019-05-31 03:00:00 17.1 3 Noroeste 11 Oeste 0 -- -- 86
2019-05-31 02:00:00 17.1 9 Oeste 12 Oeste 0 -- -- 85
2019-05-31 01:00:00 17.4 6 Oeste 13 Oeste 0 -- -- 89
2019-05-31 00:00:00 17.5 8 Oeste 14 Sudoeste 0 -- -- 86
2019-05-30 23:00:00 17.7 10 Sudoeste 17 Sudoeste 0 -- -- 85
2019-05-30 22:00:00 17.8 8 Sudoeste 17 Oeste 0 -- -- 77
2019-05-30 21:00:00 18 10 Sudoeste 21 Sudoeste 0 -- -- 85
2019-05-30 20:00:00 18.1 18 Sudoeste 26 Sudoeste 0 -- -- 88
2019-05-30 19:00:00 18.5 22 Sudoeste 27 Sudoeste 0 -- -- 79
2019-05-30 18:00:00 18.5 18 Sur 23 Sudoeste 0 -- -- 76
2019-05-30 17:00:00 18.7 17 Sur 22 Sudoeste 0 -- -- 74
2019-05-30 16:00:00 18.6 18 Sudoeste 24 Sur 0 -- -- 80
2019-05-30 15:00:00 19 14 Sur 18 Sur 0 -- -- 77
2019-05-30 14:00:00 19.5 11 Sur 20 Sur 0 -- -- 74
2019-05-30 13:00:00 19.9 11 Sur 18 Sur 0 -- -- 73
2019-05-30 12:00:00 19.2 10 Sur 17 Sudeste 0 -- -- 74
2019-05-30 11:00:00 19.3 9 Sudeste 16 Este 0 -- -- 70
2019-05-30 10:00:00 18.3 12 Este 14 Este 0 -- -- 67
2019-05-30 09:00:00 17.6 10 Este 15 Este 0 -- -- 63
2019-05-30 08:00:00 16.3 5 Norte 10 Norte 0 -- -- 74
2019-05-30 07:00:00 14.6 6 Norte 10 Norte 0 -- -- 82
2019-05-30 06:00:00 14.1 3 Norte 6 Norte 0 -- -- 85
2019-05-30 05:00:00 15.1 0 Calma 5 Norte 0 -- -- 85
2019-05-30 04:00:00 15 0 Calma 9 Sudeste 0 -- -- 86
2019-05-30 03:00:00 15.5 4 Norte 10 Este 0 -- -- 82
2019-05-30 02:00:00 16.4 4 Nordeste 7 Norte 0 -- -- 74
2019-05-30 01:00:00 16.6 4 Noroeste 11 Noroeste 0 -- -- 85
2019-05-30 00:00:00 16.8 5 Sudoeste 17 Oeste 0 -- -- 85
2019-05-29 23:00:00 17 7 Sudoeste 17 Sudoeste 0 -- -- 82
2019-05-29 22:00:00 17.1 11 Sudoeste 17 Sudoeste 0 -- -- 78
2019-05-29 21:00:00 17.3 6 Sudoeste 12 Sur 0 -- -- 82
2019-05-29 20:00:00 18.9 8 Sur 15 Sudeste 0 -- -- 77
2019-05-29 19:00:00 19.3 12 Sudeste 19 Sur 0 -- -- 77
2019-05-29 18:00:00 19 12 Sur 24 Sur 0 -- -- 78
2019-05-29 17:00:00 17.9 19 Sur 32 Sudoeste 0 -- -- 78
2019-05-29 16:00:00 18 25 Sudoeste 38 Sur 0 -- -- 74
2019-05-29 15:00:00 17.6 29 Sudoeste 38 Sur 0 -- -- 74
2019-05-29 14:00:00 17.9 25 Sudoeste 35 Sudoeste 0 -- -- 73
2019-05-29 13:00:00 18.3 26 Sudoeste 36 Sudoeste 0 -- -- 66
2019-05-29 12:00:00 18.1 26 Sudoeste 37 Sudoeste 0 -- -- 70
2019-05-29 11:00:00 18.1 18 Sudoeste 23 Sur 0 -- -- 60
2019-05-29 10:00:00 18.6 12 Sudeste 15 Sur 0 -- -- 60
2019-05-29 09:00:00 18 5 Sudeste 9 Este 0 -- -- 69
2019-05-29 08:00:00 17 5 Este 11 Oeste 0 -- -- 67
2019-05-29 07:00:00 15.4 2 Norte 11 Norte 0 -- -- 76
2019-05-29 06:00:00 15.1 3 Nordeste 10 Nordeste 0 -- -- 89
2019-05-29 05:00:00 15.2 6 Nordeste 22 Este 0 -- -- 89
2019-05-29 04:00:00 15.4 16 Este 22 Este 0 -- -- 89
2019-05-29 03:00:00 16 7 Este 21 Este 0 -- -- 85
2019-05-29 02:00:00 16.5 17 Este 22 Este 0 -- -- 86
2019-05-29 01:00:00 16.5 4 Este 8 Este 0 -- -- 81
2019-05-29 00:00:00 16.6 3 Sur 4 Sur 0 -- -- 77
2019-05-28 23:00:00 16.9 0 Calma 0 Calma 0 -- -- 77
2019-05-28 22:00:00 16.8 0 Calma 8 Este 0 -- -- 76
2019-05-28 21:00:00 17.1 8 Sudeste 15 Sudeste 0 -- -- 74
2019-05-28 20:00:00 17.4 14 Sudeste 21 Sudeste 0 -- -- 75
2019-05-28 19:00:00 17.7 19 Sudeste 24 Sudeste 0 -- -- 75
2019-05-28 18:00:00 17.9 15 Sudeste 23 Sudeste 0 -- -- 74
2019-05-28 17:00:00 17.6 14 Sudeste 23 Sudeste 0 -- -- 76
2019-05-28 16:00:00 17 17 Sur 26 Sur 0 -- -- 82
2019-05-28 15:00:00 18.9 18 Sur 26 Sur 0 -- -- 76
2019-05-28 14:00:00 18 20 Sudeste 25 Sudeste 0 -- -- 81
2019-05-28 13:00:00 18 14 Sudeste 20 Este 0 -- -- 86
2019-05-28 12:00:00 19 19 Este 28 Sudeste 0 -- -- 73
2019-05-28 11:00:00 18.2 21 Este 24 Sudeste 0 -- -- 87
2019-05-28 10:00:00 18.4 17 Este 22 Nordeste 0 -- -- 84
2019-05-28 09:00:00 19.2 7 Norte 16 Norte 0 -- -- 61
2019-05-28 08:00:00 17.5 8 Norte 16 Norte 0 -- -- 66
2019-05-28 07:00:00 16.9 3 Oeste 9 Oeste 0 -- -- 80
2019-05-28 06:00:00 16.9 4 Noroeste 9 Oeste 0 -- -- 81
2019-05-28 05:00:00 16.5 7 Oeste 11 Oeste 0 -- -- 86
2019-05-28 04:00:00 16.6 8 Oeste 17 Oeste 0 -- -- 88
2019-05-28 03:00:00 16.7 0 Calma 9 Este 0 -- -- 92
2019-05-28 02:00:00 17 4 Este 10 Este 0 -- -- 92
2019-05-28 01:00:00 17.1 9 Este 13 Este 0 -- -- 93
2019-05-28 00:00:00 17.2 10 Este 14 Este 0 -- -- 92
2019-05-27 23:00:00 17 13 Este 16 Este 0 -- -- 90
2019-05-27 22:00:00 17.5 9 Este 15 Sudeste 0 -- -- 91
2019-05-27 21:00:00 17.9 13 Sudeste 17 Sudeste 0 -- -- 88
2019-05-27 20:00:00 18.2 12 Sudeste 15 Sudeste 0 -- -- 86
2019-05-27 19:00:00 18.7 11 Sudeste 18 Sudeste 0 -- -- 81
2019-05-27 18:00:00 19.7 10 Sur 20 Sur 0 -- -- 80
2019-05-27 17:00:00 19.6 12 Sur 18 Sur 0 -- -- 77
2019-05-27 16:00:00 19.6 13 Sur 24 Sur 0 -- -- 74
2019-05-27 15:00:00 18.7 18 Sudoeste 33 Sudoeste 0 -- -- 79
2019-05-27 14:00:00 18.4 30 Sudoeste 36 Sudoeste 0 -- -- 74
2019-05-27 13:00:00 19 18 Sur 26 Sur 0 -- -- 72
2019-05-27 12:00:00 -- 9 Sur 15 Sur 0 -- -- --
2019-05-27 11:00:00 -- 7 Sur 21 Nordeste 0 -- -- --
2019-05-27 10:00:00 -- 12 Nordeste 20 Nordeste 0 -- -- --
2019-05-27 09:00:00 18.9 14 Norte 24 Nordeste 0 -- -- 57
2019-05-27 08:00:00 17.5 10 Noroeste 24 Norte 0 -- -- 60
2019-05-27 07:00:00 16.6 11 Norte 21 Norte 0 -- -- 61
2019-05-27 06:00:00 17.5 0 Calma 19 Noroeste 0 -- -- 57
2019-05-27 05:00:00 18.1 4 Noroeste 25 Noroeste 0 -- -- 53
2019-05-27 04:00:00 16.6 10 Noroeste 22 Noroeste 0 -- -- 69
2019-05-27 03:00:00 16.9 4 Sudeste 9 Norte 0 -- -- 74
2019-05-27 02:00:00 17.4 8 Norte 13 Oeste 0 -- -- 68
2019-05-27 01:00:00 18.8 8 Oeste 12 Oeste 0 -- -- 60
2019-05-27 00:00:00 19.2 7 Oeste 11 Oeste 0 -- -- 59
2019-05-26 23:00:00 19.9 7 Oeste 10 Oeste 0 -- -- 59
2019-05-26 22:00:00 20.3 6 Oeste 15 Sudoeste 0 -- -- 54
2019-05-26 21:00:00 20.8 9 Oeste 15 Oeste 0 -- -- 54
2019-05-26 20:00:00 19.3 12 Sudoeste 17 Sudoeste 0 -- -- 73
2019-05-26 19:00:00 20.8 8 Sudoeste 19 Sudoeste 0 -- -- 56
2019-05-26 18:00:00 21 14 Sudoeste 26 Sudoeste 0 -- -- 53
2019-05-26 17:00:00 18.1 19 Sudoeste 26 Sudoeste 0 -- -- 75
2019-05-26 16:00:00 19.6 19 Sudoeste 27 Sudoeste 0 -- -- 64
2019-05-26 15:00:00 18.9 16 Sudoeste 29 Sudoeste 0 -- -- 70
2019-05-26 14:00:00 20.3 16 Sur 22 Sur 0 -- -- 64
2019-05-26 13:00:00 21.5 12 Sur 15 Sur 0 -- -- 61
2019-05-26 12:00:00 22.2 9 Sur 18 Sudeste 0 -- -- 50
2019-05-26 11:00:00 21.2 12 Norte 22 Norte 0 -- -- 49
2019-05-26 10:00:00 20.1 8 Norte 20 Norte 0 -- -- 52
2019-05-26 09:00:00 18.2 12 Noroeste 20 Norte 0 -- -- 57
2019-05-26 08:00:00 16 10 Norte 19 Norte 0 -- -- 64
2019-05-26 07:00:00 16 13 Noroeste 28 Norte 0 -- -- 67
2019-05-26 06:00:00 16.4 13 Norte 23 Norte 0 -- -- 68
2019-05-26 05:00:00 16.2 6 Norte 20 Norte 0 -- -- 79
2019-05-26 04:00:00 15.9 10 Norte 19 Norte 0 -- -- 85
2019-05-26 03:00:00 15.4 10 Norte 19 Nordeste 0 -- -- 89
2019-05-26 02:00:00 16.6 6 Nordeste 11 Nordeste 0 -- -- 88
2019-05-26 01:00:00 17.1 2 Norte 9 Noroeste 0 -- -- 86
2019-05-26 00:00:00 17 0 Calma -- -- 0 -- -- 89